sensor_id;sensor_type;location;lat;lon;timestamp;P1;durP1;ratioP1;P2;durP2;ratioP2
2061;SDS011;11070;51.336;12.340;2023-04-24T00:01:27;3.13;;;2.93;;
2061;SDS011;11070;51.336;12.340;2023-04-24T00:03:54;3.30;;;3.10;;
2061;SDS011;11070;51.336;12.340;2023-04-24T00:06:24;2.92;;;2.72;;
2061;SDS011;11070;51.336;12.340;2023-04-24T00:08:57;3.63;;;3.10;;
2061;SDS011;11070;51.336;12.340;2023-04-24T00:11:26;2.72;;;2.63;;
2061;SDS011;11070;51.336;12.340;2023-04-24T00:13:52;3.17;;;2.97;;
2061;SDS011;11070;51.336;12.340;2023-04-24T00:16:18;3.90;;;3.60;;
2061;SDS011;11070;51.336;12.340;2023-04-24T00:18:44;4.90;;;3.60;;
2061;SDS011;11070;51.336;12.340;2023-04-24T00:21:13;3.60;;;3.40;;
2061;SDS011;11070;51.336;12.340;2023-04-24T00:23:42;3.70;;;3.40;;
2061;SDS011;11070;51.336;12.340;2023-04-24T00:26:09;4.55;;;4.15;;
2061;SDS011;11070;51.336;12.340;2023-04-24T00:28:34;3.77;;;3.40;;
2061;SDS011;11070;51.336;12.340;2023-04-24T00:31:00;3.87;;;3.57;;
2061;SDS011;11070;51.336;12.340;2023-04-24T00:33:26;3.60;;;3.40;;
2061;SDS011;11070;51.336;12.340;2023-04-24T00:35:51;3.80;;;3.50;;
2061;SDS011;11070;51.336;12.340;2023-04-24T00:38:17;4.07;;;3.63;;
2061;SDS011;11070;51.336;12.340;2023-04-24T00:40:43;3.58;;;3.28;;
2061;SDS011;11070;51.336;12.340;2023-04-24T00:43:09;3.80;;;3.50;;
2061;SDS011;11070;51.336;12.340;2023-04-24T00:45:35;4.37;;;4.07;;
2061;SDS011;11070;51.336;12.340;2023-04-24T00:48:01;4.13;;;3.83;;
2061;SDS011;11070;51.336;12.340;2023-04-24T00:50:27;4.00;;;3.70;;
2061;SDS011;11070;51.336;12.340;2023-04-24T00:52:54;3.50;;;3.30;;
2061;SDS011;11070;51.336;12.340;2023-04-24T00:55:20;3.60;;;3.40;;
2061;SDS011;11070;51.336;12.340;2023-04-24T00:57:45;4.20;;;3.80;;
2061;SDS011;11070;51.336;12.340;2023-04-24T01:00:12;2.70;;;2.60;;
2061;SDS011;11070;51.336;12.340;2023-04-24T01:02:40;3.22;;;2.92;;
2061;SDS011;11070;51.336;12.340;2023-04-24T01:05:11;2.70;;;2.50;;
2061;SDS011;11070;51.336;12.340;2023-04-24T01:07:38;5.55;;;2.90;;
2061;SDS011;11070;51.336;12.340;2023-04-24T01:10:06;3.90;;;3.28;;
2061;SDS011;11070;51.336;12.340;2023-04-24T01:12:33;3.40;;;3.20;;
2061;SDS011;11070;51.336;12.340;2023-04-24T01:14:59;3.30;;;3.10;;
2061;SDS011;11070;51.336;12.340;2023-04-24T01:17:25;3.50;;;2.80;;
2061;SDS011;11070;51.336;12.340;2023-04-24T01:19:50;2.90;;;2.70;;
2061;SDS011;11070;51.336;12.340;2023-04-24T01:22:21;2.72;;;2.53;;
2061;SDS011;11070;51.336;12.340;2023-04-24T01:24:47;2.60;;;2.50;;
2061;SDS011;11070;51.336;12.340;2023-04-24T01:27:13;2.10;;;2.00;;
2061;SDS011;11070;51.336;12.340;2023-04-24T01:29:39;2.40;;;2.30;;
2061;SDS011;11070;51.336;12.340;2023-04-24T01:32:05;2.20;;;2.10;;
2061;SDS011;11070;51.336;12.340;2023-04-24T01:34:32;2.53;;;2.08;;
2061;SDS011;11070;51.336;12.340;2023-04-24T01:36:58;2.15;;;1.88;;
2061;SDS011;11070;51.336;12.340;2023-04-24T01:39:24;5.65;;;2.15;;
2061;SDS011;11070;51.336;12.340;2023-04-24T01:41:51;1.90;;;1.80;;
2061;SDS011;11070;51.336;12.340;2023-04-24T01:44:17;1.90;;;1.80;;
2061;SDS011;11070;51.336;12.340;2023-04-24T01:46:43;1.73;;;1.63;;
2061;SDS011;11070;51.336;12.340;2023-04-24T01:49:10;2.00;;;1.90;;
2061;SDS011;11070;51.336;12.340;2023-04-24T01:51:36;1.65;;;1.55;;
2061;SDS011;11070;51.336;12.340;2023-04-24T01:54:01;2.10;;;2.00;;
2061;SDS011;11070;51.336;12.340;2023-04-24T01:56:29;2.53;;;1.90;;
2061;SDS011;11070;51.336;12.340;2023-04-24T01:58:55;2.03;;;1.92;;
2061;SDS011;11070;51.336;12.340;2023-04-24T02:01:23;2.05;;;1.95;;
2061;SDS011;11070;51.336;12.340;2023-04-24T02:03:49;2.30;;;2.15;;
2061;SDS011;11070;51.336;12.340;2023-04-24T02:06:15;1.97;;;1.87;;
2061;SDS011;11070;51.336;12.340;2023-04-24T02:08:41;2.50;;;2.30;;
2061;SDS011;11070;51.336;12.340;2023-04-24T02:11:08;2.73;;;2.30;;
2061;SDS011;11070;51.336;12.340;2023-04-24T02:13:35;1.90;;;1.80;;
2061;SDS011;11070;51.336;12.340;2023-04-24T02:16:01;2.00;;;1.90;;
2061;SDS011;11070;51.336;12.340;2023-04-24T02:18:26;2.60;;;2.40;;
2061;SDS011;11070;51.336;12.340;2023-04-24T02:20:52;2.60;;;2.40;;
2061;SDS011;11070;51.336;12.340;2023-04-24T02:23:18;2.65;;;2.22;;
2061;SDS011;11070;51.336;12.340;2023-04-24T02:25:44;2.80;;;2.60;;
2061;SDS011;11070;51.336;12.340;2023-04-24T02:28:10;2.58;;;2.47;;
2061;SDS011;11070;51.336;12.340;2023-04-24T02:30:36;2.43;;;2.20;;
2061;SDS011;11070;51.336;12.340;2023-04-24T02:33:02;2.53;;;2.33;;
2061;SDS011;11070;51.336;12.340;2023-04-24T02:35:28;2.42;;;2.33;;
2061;SDS011;11070;51.336;12.340;2023-04-24T02:37:54;3.95;;;2.50;;
2061;SDS011;11070;51.336;12.340;2023-04-24T02:40:20;2.80;;;2.60;;
2061;SDS011;11070;51.336;12.340;2023-04-24T02:42:46;3.30;;;2.77;;
2061;SDS011;11070;51.336;12.340;2023-04-24T02:45:11;2.83;;;2.63;;
2061;SDS011;11070;51.336;12.340;2023-04-24T02:47:37;2.80;;;2.70;;
2061;SDS011;11070;51.336;12.340;2023-04-24T02:50:03;3.20;;;3.00;;
2061;SDS011;11070;51.336;12.340;2023-04-24T02:52:29;2.53;;;2.40;;
2061;SDS011;11070;51.336;12.340;2023-04-24T02:54:55;3.10;;;2.90;;
2061;SDS011;11070;51.336;12.340;2023-04-24T02:57:21;3.00;;;2.80;;
2061;SDS011;11070;51.336;12.340;2023-04-24T02:59:47;2.65;;;2.45;;
2061;SDS011;11070;51.336;12.340;2023-04-24T03:02:12;2.90;;;2.70;;
2061;SDS011;11070;51.336;12.340;2023-04-24T03:04:38;3.20;;;2.93;;
2061;SDS011;11070;51.336;12.340;2023-04-24T03:07:05;3.20;;;3.00;;
2061;SDS011;11070;51.336;12.340;2023-04-24T03:09:30;3.23;;;3.03;;
2061;SDS011;11070;51.336;12.340;2023-04-24T03:11:56;3.70;;;3.40;;
2061;SDS011;11070;51.336;12.340;2023-04-24T03:14:23;2.83;;;2.72;;
2061;SDS011;11070;51.336;12.340;2023-04-24T03:16:49;3.10;;;2.90;;
2061;SDS011;11070;51.336;12.340;2023-04-24T03:19:15;3.70;;;3.35;;
2061;SDS011;11070;51.336;12.340;2023-04-24T03:21:41;2.93;;;2.70;;
2061;SDS011;11070;51.336;12.340;2023-04-24T03:24:07;2.93;;;2.73;;
2061;SDS011;11070;51.336;12.340;2023-04-24T03:26:33;4.88;;;2.78;;
2061;SDS011;11070;51.336;12.340;2023-04-24T03:29:00;3.55;;;3.05;;
2061;SDS011;11070;51.336;12.340;2023-04-24T03:31:25;3.10;;;2.90;;
2061;SDS011;11070;51.336;12.340;2023-04-24T03:33:51;3.50;;;2.90;;
2061;SDS011;11070;51.336;12.340;2023-04-24T03:36:17;3.53;;;3.20;;
2061;SDS011;11070;51.336;12.340;2023-04-24T03:38:44;3.10;;;2.90;;
2061;SDS011;11070;51.336;12.340;2023-04-24T03:41:10;3.17;;;2.97;;
2061;SDS011;11070;51.336;12.340;2023-04-24T03:43:36;3.42;;;3.22;;
2061;SDS011;11070;51.336;12.340;2023-04-24T03:46:02;3.90;;;2.60;;
2061;SDS011;11070;51.336;12.340;2023-04-24T03:48:28;3.55;;;2.72;;
2061;SDS011;11070;51.336;12.340;2023-04-24T03:50:54;2.75;;;2.60;;
2061;SDS011;11070;51.336;12.340;2023-04-24T03:53:20;3.10;;;2.90;;
2061;SDS011;11070;51.336;12.340;2023-04-24T03:55:46;2.70;;;2.30;;
2061;SDS011;11070;51.336;12.340;2023-04-24T03:58:12;4.83;;;2.60;;
2061;SDS011;11070;51.336;12.340;2023-04-24T04:00:39;3.08;;;2.55;;
2061;SDS011;11070;51.336;12.340;2023-04-24T04:03:05;3.13;;;2.83;;
2061;SDS011;11070;51.336;12.340;2023-04-24T04:05:31;2.45;;;2.35;;
2061;SDS011;11070;51.336;12.340;2023-04-24T04:07:57;3.13;;;2.87;;
2061;SDS011;11070;51.336;12.340;2023-04-24T04:10:22;3.00;;;2.80;;
2061;SDS011;11070;51.336;12.340;2023-04-24T04:12:48;3.43;;;3.13;;
2061;SDS011;11070;51.336;12.340;2023-04-24T04:15:14;3.23;;;3.03;;
2061;SDS011;11070;51.336;12.340;2023-04-24T04:17:40;2.93;;;2.73;;
2061;SDS011;11070;51.336;12.340;2023-04-24T04:20:06;2.70;;;2.50;;
2061;SDS011;11070;51.336;12.340;2023-04-24T04:22:34;2.83;;;2.63;;
2061;SDS011;11070;51.336;12.340;2023-04-24T04:25:00;2.60;;;2.50;;
2061;SDS011;11070;51.336;12.340;2023-04-24T04:27:25;3.53;;;3.23;;
2061;SDS011;11070;51.336;12.340;2023-04-24T04:29:51;2.83;;;2.63;;
2061;SDS011;11070;51.336;12.340;2023-04-24T04:32:17;3.93;;;3.17;;
2061;SDS011;11070;51.336;12.340;2023-04-24T04:34:43;2.97;;;2.77;;
2061;SDS011;11070;51.336;12.340;2023-04-24T04:37:10;4.00;;;3.30;;
2061;SDS011;11070;51.336;12.340;2023-04-24T04:39:37;5.88;;;3.15;;
2061;SDS011;11070;51.336;12.340;2023-04-24T04:42:03;2.90;;;2.43;;
2061;SDS011;11070;51.336;12.340;2023-04-24T04:44:29;3.13;;;2.80;;
2061;SDS011;11070;51.336;12.340;2023-04-24T04:46:55;3.03;;;2.45;;
2061;SDS011;11070;51.336;12.340;2023-04-24T04:49:21;2.85;;;2.35;;
2061;SDS011;11070;51.336;12.340;2023-04-24T04:51:48;3.22;;;2.45;;
2061;SDS011;11070;51.336;12.340;2023-04-24T04:54:17;2.95;;;2.65;;
2061;SDS011;11070;51.336;12.340;2023-04-24T04:56:42;3.63;;;2.33;;
2061;SDS011;11070;51.336;12.340;2023-04-24T04:59:08;5.13;;;3.00;;
2061;SDS011;11070;51.336;12.340;2023-04-24T05:01:33;3.37;;;3.07;;
2061;SDS011;11070;51.336;12.340;2023-04-24T05:03:59;2.70;;;2.60;;
2061;SDS011;11070;51.336;12.340;2023-04-24T05:06:25;3.20;;;2.90;;
2061;SDS011;11070;51.336;12.340;2023-04-24T05:08:51;3.53;;;3.23;;
2061;SDS011;11070;51.336;12.340;2023-04-24T05:11:20;4.43;;;3.40;;
2061;SDS011;11070;51.336;12.340;2023-04-24T05:13:46;2.90;;;2.70;;
2061;SDS011;11070;51.336;12.340;2023-04-24T05:16:12;2.87;;;2.60;;
2061;SDS011;11070;51.336;12.340;2023-04-24T05:18:38;3.73;;;3.43;;
2061;SDS011;11070;51.336;12.340;2023-04-24T05:21:03;4.20;;;2.80;;
2061;SDS011;11070;51.336;12.340;2023-04-24T05:23:29;8.20;;;3.93;;
2061;SDS011;11070;51.336;12.340;2023-04-24T05:25:55;4.10;;;3.20;;
2061;SDS011;11070;51.336;12.340;2023-04-24T05:28:21;4.85;;;3.05;;
2061;SDS011;11070;51.336;12.340;2023-04-24T05:30:47;5.20;;;2.77;;
2061;SDS011;11070;51.336;12.340;2023-04-24T05:33:12;4.13;;;2.83;;
2061;SDS011;11070;51.336;12.340;2023-04-24T05:35:40;3.28;;;3.08;;
2061;SDS011;11070;51.336;12.340;2023-04-24T05:38:11;3.70;;;2.70;;
2061;SDS011;11070;51.336;12.340;2023-04-24T05:40:37;3.53;;;2.72;;
2061;SDS011;11070;51.336;12.340;2023-04-24T05:43:02;3.50;;;3.20;;
2061;SDS011;11070;51.336;12.340;2023-04-24T05:45:28;5.03;;;3.33;;
2061;SDS011;11070;51.336;12.340;2023-04-24T05:47:53;9.30;;;4.00;;
2061;SDS011;11070;51.336;12.340;2023-04-24T05:50:20;3.70;;;3.40;;
2061;SDS011;11070;51.336;12.340;2023-04-24T05:52:45;4.00;;;3.40;;
2061;SDS011;11070;51.336;12.340;2023-04-24T05:55:11;3.70;;;3.40;;
2061;SDS011;11070;51.336;12.340;2023-04-24T05:57:38;4.07;;;3.65;;
2061;SDS011;11070;51.336;12.340;2023-04-24T06:00:04;3.63;;;3.33;;
2061;SDS011;11070;51.336;12.340;2023-04-24T06:02:31;3.75;;;2.95;;
2061;SDS011;11070;51.336;12.340;2023-04-24T06:04:58;7.32;;;3.33;;
2061;SDS011;11070;51.336;12.340;2023-04-24T06:07:24;3.55;;;3.05;;
2061;SDS011;11070;51.336;12.340;2023-04-24T06:09:51;3.20;;;3.00;;
2061;SDS011;11070;51.336;12.340;2023-04-24T06:12:17;3.07;;;2.87;;
2061;SDS011;11070;51.336;12.340;2023-04-24T06:14:43;2.97;;;2.77;;
2061;SDS011;11070;51.336;12.340;2023-04-24T06:17:08;3.70;;;3.40;;
2061;SDS011;11070;51.336;12.340;2023-04-24T06:19:34;4.03;;;3.13;;
2061;SDS011;11070;51.336;12.340;2023-04-24T06:22:00;7.03;;;3.50;;
2061;SDS011;11070;51.336;12.340;2023-04-24T06:24:28;3.33;;;3.13;;
2061;SDS011;11070;51.336;12.340;2023-04-24T06:26:54;3.25;;;2.95;;
2061;SDS011;11070;51.336;12.340;2023-04-24T06:29:21;3.92;;;3.22;;
2061;SDS011;11070;51.336;12.340;2023-04-24T06:31:47;3.10;;;2.90;;
2061;SDS011;11070;51.336;12.340;2023-04-24T06:34:13;3.30;;;3.03;;
2061;SDS011;11070;51.336;12.340;2023-04-24T06:36:38;4.00;;;2.90;;
2061;SDS011;11070;51.336;12.340;2023-04-24T06:39:04;3.90;;;3.37;;
2061;SDS011;11070;51.336;12.340;2023-04-24T06:41:30;5.90;;;3.70;;
2061;SDS011;11070;51.336;12.340;2023-04-24T06:43:56;3.33;;;3.10;;
2061;SDS011;11070;51.336;12.340;2023-04-24T06:46:21;3.23;;;2.97;;
2061;SDS011;11070;51.336;12.340;2023-04-24T06:48:50;3.35;;;3.15;;
2061;SDS011;11070;51.336;12.340;2023-04-24T06:51:22;5.22;;;2.75;;
2061;SDS011;11070;51.336;12.340;2023-04-24T06:53:52;2.95;;;2.70;;
2061;SDS011;11070;51.336;12.340;2023-04-24T06:56:18;4.50;;;2.92;;
2061;SDS011;11070;51.336;12.340;2023-04-24T06:58:45;4.25;;;3.10;;
2061;SDS011;11070;51.336;12.340;2023-04-24T07:01:11;2.97;;;2.78;;
2061;SDS011;11070;51.336;12.340;2023-04-24T07:03:37;3.17;;;2.77;;
2061;SDS011;11070;51.336;12.340;2023-04-24T07:06:04;3.40;;;2.80;;
2061;SDS011;11070;51.336;12.340;2023-04-24T07:08:30;3.90;;;2.80;;
2061;SDS011;11070;51.336;12.340;2023-04-24T07:10:56;3.07;;;2.70;;
2061;SDS011;11070;51.336;12.340;2023-04-24T07:13:22;3.70;;;2.78;;
2061;SDS011;11070;51.336;12.340;2023-04-24T07:15:48;3.38;;;2.50;;
2061;SDS011;11070;51.336;12.340;2023-04-24T07:18:15;4.32;;;2.38;;
2061;SDS011;11070;51.336;12.340;2023-04-24T07:20:42;2.60;;;2.13;;
2061;SDS011;11070;51.336;12.340;2023-04-24T07:23:07;2.57;;;2.37;;
2061;SDS011;11070;51.336;12.340;2023-04-24T07:25:33;3.73;;;2.23;;
2061;SDS011;11070;51.336;12.340;2023-04-24T07:27:59;2.60;;;2.40;;
2061;SDS011;11070;51.336;12.340;2023-04-24T07:30:25;4.67;;;2.30;;
2061;SDS011;11070;51.336;12.340;2023-04-24T07:32:50;3.30;;;2.23;;
2061;SDS011;11070;51.336;12.340;2023-04-24T07:35:16;4.63;;;2.40;;
2061;SDS011;11070;51.336;12.340;2023-04-24T07:37:42;2.60;;;2.40;;
2061;SDS011;11070;51.336;12.340;2023-04-24T07:40:11;4.95;;;2.03;;
2061;SDS011;11070;51.336;12.340;2023-04-24T07:42:37;4.53;;;2.10;;
2061;SDS011;11070;51.336;12.340;2023-04-24T07:45:03;3.43;;;2.20;;
2061;SDS011;11070;51.336;12.340;2023-04-24T07:47:30;4.82;;;2.10;;
2061;SDS011;11070;51.336;12.340;2023-04-24T07:49:56;4.07;;;2.00;;
2061;SDS011;11070;51.336;12.340;2023-04-24T07:52:22;4.23;;;1.90;;
2061;SDS011;11070;51.336;12.340;2023-04-24T07:54:48;4.00;;;2.10;;
2061;SDS011;11070;51.336;12.340;2023-04-24T07:57:14;3.10;;;2.25;;
2061;SDS011;11070;51.336;12.340;2023-04-24T07:59:41;1.93;;;1.83;;
2061;SDS011;11070;51.336;12.340;2023-04-24T08:02:06;2.23;;;2.00;;
2061;SDS011;11070;51.336;12.340;2023-04-24T08:04:32;3.73;;;1.80;;
2061;SDS011;11070;51.336;12.340;2023-04-24T08:06:58;1.77;;;1.67;;
2061;SDS011;11070;51.336;12.340;2023-04-24T08:09:24;2.87;;;1.80;;
2061;SDS011;11070;51.336;12.340;2023-04-24T08:11:50;1.80;;;1.30;;
2061;SDS011;11070;51.336;12.340;2023-04-24T08:14:15;1.50;;;1.30;;
2061;SDS011;11070;51.336;12.340;2023-04-24T08:16:41;1.40;;;1.30;;
2061;SDS011;11070;51.336;12.340;2023-04-24T08:19:07;1.50;;;1.40;;
2061;SDS011;11070;51.336;12.340;2023-04-24T08:21:32;2.47;;;1.23;;
2061;SDS011;11070;51.336;12.340;2023-04-24T08:23:58;7.70;;;1.80;;
2061;SDS011;11070;51.336;12.340;2023-04-24T08:26:24;3.60;;;1.53;;
2061;SDS011;11070;51.336;12.340;2023-04-24T08:28:49;1.70;;;1.40;;
2061;SDS011;11070;51.336;12.340;2023-04-24T08:31:15;1.40;;;1.27;;
2061;SDS011;11070;51.336;12.340;2023-04-24T08:33:41;1.30;;;1.20;;
2061;SDS011;11070;51.336;12.340;2023-04-24T08:36:09;1.65;;;1.10;;
2061;SDS011;11070;51.336;12.340;2023-04-24T08:38:35;1.47;;;1.20;;
2061;SDS011;11070;51.336;12.340;2023-04-24T08:41:01;2.37;;;1.40;;
2061;SDS011;11070;51.336;12.340;2023-04-24T08:43:27;2.10;;;1.10;;
2061;SDS011;11070;51.336;12.340;2023-04-24T08:45:54;1.33;;;1.23;;
2061;SDS011;11070;51.336;12.340;2023-04-24T08:48:21;1.85;;;0.90;;
2061;SDS011;11070;51.336;12.340;2023-04-24T08:50:48;1.10;;;1.00;;
2061;SDS011;11070;51.336;12.340;2023-04-24T08:53:15;1.35;;;0.85;;
2061;SDS011;11070;51.336;12.340;2023-04-24T08:55:41;2.03;;;1.27;;
2061;SDS011;11070;51.336;12.340;2023-04-24T08:58:08;1.20;;;1.10;;
2061;SDS011;11070;51.336;12.340;2023-04-24T09:00:35;2.80;;;1.58;;
2061;SDS011;11070;51.336;12.340;2023-04-24T09:03:02;1.50;;;1.38;;
2061;SDS011;11070;51.336;12.340;2023-04-24T09:05:29;1.27;;;1.00;;
2061;SDS011;11070;51.336;12.340;2023-04-24T09:07:56;1.93;;;1.20;;
2061;SDS011;11070;51.336;12.340;2023-04-24T09:10:23;2.45;;;1.30;;
2061;SDS011;11070;51.336;12.340;2023-04-24T09:12:52;1.45;;;1.10;;
2061;SDS011;11070;51.336;12.340;2023-04-24T09:15:19;1.40;;;1.30;;
2061;SDS011;11070;51.336;12.340;2023-04-24T09:17:47;1.52;;;1.40;;
2061;SDS011;11070;51.336;12.340;2023-04-24T09:20:14;1.20;;;1.10;;
2061;SDS011;11070;51.336;12.340;2023-04-24T09:22:40;1.20;;;1.10;;
2061;SDS011;11070;51.336;12.340;2023-04-24T09:25:07;1.65;;;1.33;;
2061;SDS011;11070;51.336;12.340;2023-04-24T09:27:34;1.30;;;1.20;;
2061;SDS011;11070;51.336;12.340;2023-04-24T09:30:00;3.90;;;1.40;;
2061;SDS011;11070;51.336;12.340;2023-04-24T09:32:26;3.58;;;1.40;;
2061;SDS011;11070;51.336;12.340;2023-04-24T09:37:37;1.88;;;1.30;;
2061;SDS011;11070;51.336;12.340;2023-04-24T09:45:21;1.75;;;1.33;;
2061;SDS011;11070;51.336;12.340;2023-04-24T09:47:52;1.25;;;1.15;;
2061;SDS011;11070;51.336;12.340;2023-04-24T09:50:19;2.28;;;1.50;;
2061;SDS011;11070;51.336;12.340;2023-04-24T09:52:47;3.30;;;1.17;;
2061;SDS011;11070;51.336;12.340;2023-04-24T09:55:22;1.48;;;1.38;;
2061;SDS011;11070;51.336;12.340;2023-04-24T09:57:56;1.38;;;1.27;;
2061;SDS011;11070;51.336;12.340;2023-04-24T10:00:25;1.50;;;1.40;;
2061;SDS011;11070;51.336;12.340;2023-04-24T10:02:55;1.27;;;1.15;;
2061;SDS011;11070;51.336;12.340;2023-04-24T10:05:31;3.92;;;1.90;;
2061;SDS011;11070;51.336;12.340;2023-04-24T10:07:59;1.90;;;1.80;;
2061;SDS011;11070;51.336;12.340;2023-04-24T10:10:33;3.25;;;2.83;;
2061;SDS011;11070;51.336;12.340;2023-04-24T10:13:00;5.03;;;3.13;;
2061;SDS011;11070;51.336;12.340;2023-04-24T10:15:26;1.73;;;1.63;;
2061;SDS011;11070;51.336;12.340;2023-04-24T10:17:52;3.83;;;2.33;;
2061;SDS011;11070;51.336;12.340;2023-04-24T10:20:22;1.47;;;1.37;;
2061;SDS011;11070;51.336;12.340;2023-04-24T10:22:54;2.00;;;1.90;;
2061;SDS011;11070;51.336;12.340;2023-04-24T10:25:21;2.55;;;1.80;;
2061;SDS011;11070;51.336;12.340;2023-04-24T10:27:49;2.10;;;1.90;;
2061;SDS011;11070;51.336;12.340;2023-04-24T10:30:16;2.50;;;2.30;;
2061;SDS011;11070;51.336;12.340;2023-04-24T10:32:42;2.70;;;2.50;;
2061;SDS011;11070;51.336;12.340;2023-04-24T10:35:12;3.87;;;2.00;;
2061;SDS011;11070;51.336;12.340;2023-04-24T10:37:40;2.05;;;1.70;;
2061;SDS011;11070;51.336;12.340;2023-04-24T10:40:10;5.53;;;2.80;;
2061;SDS011;11070;51.336;12.340;2023-04-24T10:42:41;4.22;;;3.83;;
2061;SDS011;11070;51.336;12.340;2023-04-24T10:45:16;3.45;;;3.15;;
2061;SDS011;11070;51.336;12.340;2023-04-24T10:47:50;2.15;;;1.92;;
2061;SDS011;11070;51.336;12.340;2023-04-24T10:50:27;6.43;;;4.70;;
2061;SDS011;11070;51.336;12.340;2023-04-24T10:53:24;5.77;;;5.17;;
2061;SDS011;11070;51.336;12.340;2023-04-24T10:58:40;9.63;;;6.40;;
2061;SDS011;11070;51.336;12.340;2023-04-24T11:01:30;3.80;;;2.53;;
2061;SDS011;11070;51.336;12.340;2023-04-24T11:04:01;8.83;;;6.13;;
2061;SDS011;11070;51.336;12.340;2023-04-24T11:06:35;6.95;;;5.40;;
2061;SDS011;11070;51.336;12.340;2023-04-24T11:09:10;13.18;;;7.75;;
2061;SDS011;11070;51.336;12.340;2023-04-24T11:11:44;3.55;;;3.03;;
2061;SDS011;11070;51.336;12.340;2023-04-24T11:14:14;4.20;;;3.60;;
2061;SDS011;11070;51.336;12.340;2023-04-24T11:17:26;2.83;;;2.20;;
2061;SDS011;11070;51.336;12.340;2023-04-24T11:19:33;5.25;;;3.75;;
2061;SDS011;11070;51.336;12.340;2023-04-24T11:21:59;8.68;;;5.05;;
2061;SDS011;11070;51.336;12.340;2023-04-24T11:26:56;2.15;;;2.05;;
2061;SDS011;11070;51.336;12.340;2023-04-24T11:32:23;5.03;;;4.53;;
2061;SDS011;11070;51.336;12.340;2023-04-24T11:34:51;3.17;;;2.90;;
2061;SDS011;11070;51.336;12.340;2023-04-24T11:37:18;3.00;;;2.65;;
2061;SDS011;11070;51.336;12.340;2023-04-24T11:39:44;3.40;;;1.77;;
2061;SDS011;11070;51.336;12.340;2023-04-24T11:42:10;4.63;;;2.30;;
2061;SDS011;11070;51.336;12.340;2023-04-24T11:44:39;3.90;;;2.67;;
2061;SDS011;11070;51.336;12.340;2023-04-24T11:47:06;4.07;;;3.00;;
2061;SDS011;11070;51.336;12.340;2023-04-24T11:49:32;3.50;;;2.38;;
2061;SDS011;11070;51.336;12.340;2023-04-24T11:52:01;3.50;;;3.20;;
2061;SDS011;11070;51.336;12.340;2023-04-24T11:54:27;3.50;;;3.20;;
2061;SDS011;11070;51.336;12.340;2023-04-24T11:56:53;2.10;;;1.90;;
2061;SDS011;11070;51.336;12.340;2023-04-24T11:59:18;2.40;;;1.63;;
2061;SDS011;11070;51.336;12.340;2023-04-24T12:01:44;2.40;;;1.70;;
2061;SDS011;11070;51.336;12.340;2023-04-24T12:04:14;2.53;;;2.33;;
2061;SDS011;11070;51.336;12.340;2023-04-24T12:07:03;1.98;;;1.40;;
2061;SDS011;11070;51.336;12.340;2023-04-24T12:09:27;1.92;;;1.60;;
2061;SDS011;11070;51.336;12.340;2023-04-24T12:11:54;3.73;;;1.70;;
2061;SDS011;11070;51.336;12.340;2023-04-24T12:14:23;4.40;;;3.70;;
2061;SDS011;11070;51.336;12.340;2023-04-24T12:16:49;20.02;;;14.18;;
2061;SDS011;11070;51.336;12.340;2023-04-24T12:19:22;6.20;;;5.60;;
2061;SDS011;11070;51.336;12.340;2023-04-24T12:22:04;7.50;;;6.05;;
2061;SDS011;11070;51.336;12.340;2023-04-24T12:24:31;4.80;;;4.40;;
2061;SDS011;11070;51.336;12.340;2023-04-24T12:26:57;8.60;;;6.50;;
2061;SDS011;11070;51.336;12.340;2023-04-24T12:29:23;2.72;;;2.08;;
2061;SDS011;11070;51.336;12.340;2023-04-24T12:31:53;3.25;;;2.20;;
2061;SDS011;11070;51.336;12.340;2023-04-24T12:34:23;3.10;;;2.90;;
2061;SDS011;11070;51.336;12.340;2023-04-24T12:36:50;1.85;;;1.75;;
2061;SDS011;11070;51.336;12.340;2023-04-24T12:39:17;1.95;;;1.85;;
2061;SDS011;11070;51.336;12.340;2023-04-24T12:41:50;2.22;;;2.10;;
2061;SDS011;11070;51.336;12.340;2023-04-24T12:44:28;2.90;;;2.60;;
2061;SDS011;11070;51.336;12.340;2023-04-24T12:46:59;3.55;;;2.17;;
2061;SDS011;11070;51.336;12.340;2023-04-24T12:49:25;1.60;;;1.50;;
2061;SDS011;11070;51.336;12.340;2023-04-24T12:51:52;2.20;;;2.00;;
2061;SDS011;11070;51.336;12.340;2023-04-24T12:54:18;2.83;;;2.47;;
2061;SDS011;11070;51.336;12.340;2023-04-24T12:56:43;3.53;;;2.40;;
2061;SDS011;11070;51.336;12.340;2023-04-24T12:59:09;3.53;;;1.90;;
2061;SDS011;11070;51.336;12.340;2023-04-24T13:01:35;2.33;;;1.90;;
2061;SDS011;11070;51.336;12.340;2023-04-24T13:04:00;2.10;;;2.00;;
2061;SDS011;11070;51.336;12.340;2023-04-24T13:06:26;2.30;;;2.20;;
2061;SDS011;11070;51.336;12.340;2023-04-24T13:08:52;2.80;;;2.60;;
2061;SDS011;11070;51.336;12.340;2023-04-24T13:11:19;2.60;;;2.40;;
2061;SDS011;11070;51.336;12.340;2023-04-24T13:13:46;2.75;;;2.55;;
2061;SDS011;11070;51.336;12.340;2023-04-24T13:16:12;3.70;;;3.40;;
2061;SDS011;11070;51.336;12.340;2023-04-24T13:18:38;2.30;;;2.20;;
2061;SDS011;11070;51.336;12.340;2023-04-24T13:21:04;3.07;;;2.87;;
2061;SDS011;11070;51.336;12.340;2023-04-24T13:23:29;3.40;;;3.17;;
2061;SDS011;11070;51.336;12.340;2023-04-24T13:25:55;2.63;;;2.43;;
2061;SDS011;11070;51.336;12.340;2023-04-24T13:28:23;2.75;;;2.58;;
2061;SDS011;11070;51.336;12.340;2023-04-24T13:30:50;2.90;;;2.70;;
2061;SDS011;11070;51.336;12.340;2023-04-24T13:33:16;2.00;;;1.90;;
2061;SDS011;11070;51.336;12.340;2023-04-24T13:35:42;2.30;;;2.07;;
2061;SDS011;11070;51.336;12.340;2023-04-24T13:38:08;2.50;;;2.40;;
2061;SDS011;11070;51.336;12.340;2023-04-24T13:40:33;3.40;;;3.07;;
2061;SDS011;11070;51.336;12.340;2023-04-24T13:42:59;3.97;;;3.70;;
2061;SDS011;11070;51.336;12.340;2023-04-24T13:45:25;6.93;;;6.05;;
2061;SDS011;11070;51.336;12.340;2023-04-24T13:47:51;3.38;;;3.10;;
2061;SDS011;11070;51.336;12.340;2023-04-24T13:50:21;3.40;;;2.95;;
2061;SDS011;11070;51.336;12.340;2023-04-24T13:52:47;4.90;;;4.50;;
2061;SDS011;11070;51.336;12.340;2023-04-24T13:55:13;3.00;;;2.70;;
2061;SDS011;11070;51.336;12.340;2023-04-24T13:57:39;5.07;;;2.00;;
2061;SDS011;11070;51.336;12.340;2023-04-24T14:00:05;2.00;;;1.90;;
2061;SDS011;11070;51.336;12.340;2023-04-24T14:02:34;3.67;;;2.22;;
2061;SDS011;11070;51.336;12.340;2023-04-24T14:04:59;1.90;;;1.80;;
2061;SDS011;11070;51.336;12.340;2023-04-24T14:07:25;2.00;;;1.30;;
2061;SDS011;11070;51.336;12.340;2023-04-24T14:09:51;1.50;;;1.40;;
2061;SDS011;11070;51.336;12.340;2023-04-24T14:12:17;1.97;;;1.60;;
2061;SDS011;11070;51.336;12.340;2023-04-24T14:14:44;1.50;;;1.35;;
2061;SDS011;11070;51.336;12.340;2023-04-24T14:17:11;2.50;;;1.80;;
2061;SDS011;11070;51.336;12.340;2023-04-24T14:19:37;2.30;;;1.67;;
2061;SDS011;11070;51.336;12.340;2023-04-24T14:22:02;1.40;;;1.30;;
2061;SDS011;11070;51.336;12.340;2023-04-24T14:24:28;1.80;;;1.70;;
2061;SDS011;11070;51.336;12.340;2023-04-24T14:26:54;1.70;;;1.60;;
2061;SDS011;11070;51.336;12.340;2023-04-24T14:29:21;2.75;;;1.98;;
2061;SDS011;11070;51.336;12.340;2023-04-24T14:31:47;2.13;;;1.23;;
2061;SDS011;11070;51.336;12.340;2023-04-24T14:34:13;2.00;;;1.20;;
2061;SDS011;11070;51.336;12.340;2023-04-24T14:36:39;1.40;;;1.30;;
2061;SDS011;11070;51.336;12.340;2023-04-24T14:39:05;1.02;;;0.93;;
2061;SDS011;11070;51.336;12.340;2023-04-24T14:41:32;1.30;;;1.02;;
2061;SDS011;11070;51.336;12.340;2023-04-24T14:44:00;3.95;;;1.38;;
2061;SDS011;11070;51.336;12.340;2023-04-24T14:46:27;1.48;;;1.30;;
2061;SDS011;11070;51.336;12.340;2023-04-24T14:48:55;1.40;;;0.82;;
2061;SDS011;11070;51.336;12.340;2023-04-24T14:51:23;1.20;;;1.10;;
2061;SDS011;11070;51.336;12.340;2023-04-24T14:53:50;1.55;;;1.00;;
2061;SDS011;11070;51.336;12.340;2023-04-24T14:56:16;1.20;;;1.00;;
2061;SDS011;11070;51.336;12.340;2023-04-24T14:58:42;2.60;;;1.27;;
2061;SDS011;11070;51.336;12.340;2023-04-24T15:01:08;2.33;;;1.20;;
2061;SDS011;11070;51.336;12.340;2023-04-24T15:03:34;1.80;;;1.70;;